createdAt,value
2022-08-22T00:00:57.586Z,32.35
2022-08-22T00:02:57.619Z,14.70
2022-08-22T00:03:40.400Z,33.83
2022-08-22T00:06:21.420Z,35.38
2022-08-22T00:09:11.754Z,35.65
2022-08-22T00:12:07.731Z,34.60
2022-08-22T00:14:41.537Z,37.78
2022-08-22T00:17:26.529Z,37.10
2022-08-22T00:19:56.435Z,39.47
2022-08-22T00:22:31.968Z,38.72
2022-08-22T00:25:25.772Z,38.60
2022-08-22T00:28:12.100Z,39.67
2022-08-22T00:31:00.137Z,39.22
2022-08-22T00:33:48.050Z,41.25
2022-08-22T00:36:15.113Z,41.10
2022-08-22T00:38:49.215Z,40.58
2022-08-22T00:41:39.871Z,40.25
2022-08-22T00:44:34.015Z,39.90
2022-08-22T00:47:07.190Z,42.70
2022-08-22T00:49:55.655Z,41.88
2022-08-22T00:52:48.494Z,42.38
2022-08-22T00:55:46.945Z,43.22
2022-08-22T00:58:32.215Z,43.88
2022-08-22T01:01:12.911Z,44.55
2022-08-22T01:03:49.143Z,43.40
2022-08-22T01:06:51.455Z,44.88
2022-08-22T01:09:37.510Z,44.67
2022-08-22T01:12:16.444Z,45.28
2022-08-22T01:14:55.162Z,44.70
2022-08-22T01:17:22.098Z,43.83
2022-08-22T01:20:08.183Z,43.63
2022-08-22T01:22:47.464Z,44.17
2022-08-22T01:25:46.774Z,44.20
2022-08-22T01:28:48.536Z,42.30
2022-08-22T01:31:52.252Z,43.17
2022-08-22T01:34:32.563Z,44.00
2022-08-22T01:37:20.507Z,44.10
2022-08-22T01:40:25.159Z,43.55
2022-08-22T01:43:06.726Z,43.97
2022-08-22T01:46:11.383Z,44.40
2022-08-22T01:49:03.794Z,44.53
2022-08-22T01:54:20.606Z,42.72
2022-08-22T01:56:48.641Z,44.63
2022-08-22T01:59:33.774Z,44.70
2022-08-22T02:02:32.473Z,44.47
2022-08-22T02:08:00.775Z,42.38
2022-08-22T02:11:01.576Z,44.15
2022-08-22T02:13:54.286Z,43.92
2022-08-22T02:16:39.029Z,43.92
2022-08-22T02:19:14.905Z,43.20
2022-08-22T02:21:58.846Z,41.17
2022-08-22T02:24:48.799Z,43.38
2022-08-22T02:27:39.168Z,42.42
2022-08-22T02:30:20.265Z,43.83
2022-08-22T02:33:05.813Z,42.70
2022-08-22T02:35:59.932Z,42.83
2022-08-22T02:38:48.226Z,42.78
2022-08-22T02:41:28.389Z,42.97
2022-08-22T02:44:13.624Z,41.55
2022-08-22T02:46:51.670Z,41.28
2022-08-22T02:49:28.360Z,40.65
2022-08-22T02:52:11.421Z,40.95
2022-08-22T02:55:03.970Z,40.38
2022-08-22T02:57:39.857Z,39.70
2022-08-22T03:00:30.921Z,40.60
2022-08-22T03:03:16.364Z,38.72
2022-08-22T03:05:44.981Z,37.33
2022-08-22T03:08:21.045Z,40.85
2022-08-22T03:11:40.323Z,39.22
2022-08-22T03:14:24.183Z,39.25
2022-08-22T03:17:14.701Z,38.47
2022-08-22T03:20:08.066Z,37.78
2022-08-22T03:22:48.514Z,37.45
2022-08-22T03:25:21.198Z,38.85
2022-08-22T03:28:00.796Z,38.92
2022-08-22T03:30:46.176Z,39.15
2022-08-22T03:33:19.448Z,38.35
2022-08-22T03:35:46.361Z,39.50
2022-08-22T03:38:34.474Z,39.90
2022-08-22T03:41:23.403Z,39.38
2022-08-22T03:44:15.081Z,42.78
2022-08-22T03:46:57.678Z,42.80
2022-08-22T03:49:59.748Z,43.28
2022-08-22T03:53:04.484Z,44.47
2022-08-22T03:55:51.303Z,44.28
2022-08-22T03:58:28.215Z,46.40
2022-08-22T04:01:33.383Z,45.78
2022-08-22T04:04:19.208Z,48.90
2022-08-22T04:07:28.421Z,51.13
2022-08-22T04:10:12.891Z,46.92
2022-08-22T04:12:58.578Z,50.13
2022-08-22T04:15:55.871Z,50.72
2022-08-22T04:18:35.144Z,51.53
2022-08-22T04:21:37.505Z,54.15
2022-08-22T04:24:19.612Z,55.60
2022-08-22T04:26:49.321Z,58.03
2022-08-22T04:29:23.193Z,56.47
2022-08-22T04:32:03.568Z,59.50
2022-08-22T04:34:51.461Z,60.90
2022-08-22T04:37:35.255Z,62.42
2022-08-22T04:40:15.358Z,68.03
2022-08-22T04:43:14.895Z,63.58
2022-08-22T04:48:25.728Z,67.43
2022-08-22T04:51:03.362Z,68.68
2022-08-22T04:53:48.705Z,66.63
2022-08-22T04:56:27.473Z,72.65
2022-08-22T04:59:04.743Z,74.15
2022-08-22T05:01:46.949Z,75.00
2022-08-22T05:04:48.758Z,75.00
2022-08-22T05:07:23.769Z,72.93
2022-08-22T05:10:12.119Z,77.95
2022-08-22T05:12:49.671Z,80.28
2022-08-22T05:15:23.551Z,75.40
2022-08-22T05:17:53.997Z,76.35
2022-08-22T05:20:26.118Z,77.90
2022-08-22T05:22:59.426Z,77.40
2022-08-22T05:25:30.977Z,79.22
2022-08-22T05:28:40.275Z,79.13
2022-08-22T05:31:25.575Z,85.45
2022-08-22T05:34:01.970Z,82.00
2022-08-22T05:36:34.220Z,83.30
2022-08-22T05:39:08.581Z,80.95
2022-08-22T05:41:40.868Z,86.05
2022-08-22T05:44:34.381Z,89.20
2022-08-22T05:47:18.317Z,82.93
2022-08-22T05:50:03.931Z,82.82
2022-08-22T05:52:49.085Z,87.47
2022-08-22T05:55:27.537Z,88.72
2022-08-22T05:58:30.659Z,95.15
2022-08-22T06:01:12.028Z,92.43
2022-08-22T06:03:51.075Z,95.95
2022-08-22T06:06:21.163Z,100.78
2022-08-22T06:09:20.093Z,99.55
2022-08-22T06:12:22.116Z,103.00
2022-08-22T06:15:16.853Z,99.70
2022-08-22T06:17:55.994Z,99.05
2022-08-22T06:20:46.477Z,103.80
2022-08-22T06:23:25.172Z,99.20
2022-08-22T06:25:56.588Z,102.88
2022-08-22T06:28:26.804Z,102.07
2022-08-22T06:30:57.324Z,100.90
2022-08-22T06:33:31.775Z,98.25
2022-08-22T06:36:30.544Z,98.00
2022-08-22T06:39:25.927Z,100.05
2022-08-22T06:42:11.207Z,101.55
2022-08-22T06:44:52.345Z,99.63
2022-08-22T06:47:27.485Z,98.68
2022-08-22T06:50:07.258Z,93.30
2022-08-22T06:53:06.215Z,94.03
2022-08-22T06:58:27.048Z,91.05
2022-08-22T07:01:05.732Z,90.57
2022-08-22T07:03:51.014Z,88.50
2022-08-22T07:06:25.330Z,88.35
2022-08-22T07:08:57.479Z,89.88
2022-08-22T07:11:29.657Z,89.13
2022-08-22T07:14:02.651Z,87.07
2022-08-22T07:16:34.574Z,85.93
2022-08-22T07:19:01.841Z,85.10
2022-08-22T07:21:42.548Z,85.93
2022-08-22T07:24:14.398Z,87.53
2022-08-22T07:27:17.239Z,89.18
2022-08-22T07:30:27.688Z,91.43
2022-08-22T07:33:26.034Z,88.75
2022-08-22T07:36:23.721Z,93.32
2022-08-22T07:39:16.671Z,90.43
2022-08-22T07:41:59.824Z,85.65
2022-08-22T15:53:26.402Z,4.22
2022-08-22T16:02:37.073Z,4.00
2022-08-22T16:11:11.606Z,4.40
2022-08-22T18:10:37.369Z,7.28
